createdAt,value
2022-08-26T00:01:03.134Z,98718.00
2022-08-26T00:04:01.558Z,98720.00
2022-08-26T00:06:59.051Z,98715.20
2022-08-26T00:09:56.534Z,98702.40
2022-08-26T00:12:54.017Z,98703.40
2022-08-26T00:15:51.648Z,98701.00
2022-08-26T00:18:49.129Z,98698.00
2022-08-26T00:21:48.855Z,98700.20
2022-08-26T00:24:47.896Z,98698.80
2022-08-26T00:27:45.639Z,98695.20
2022-08-26T00:30:43.139Z,98694.60
2022-08-26T00:33:43.128Z,98693.80
2022-08-26T00:36:42.143Z,98690.40
2022-08-26T00:39:41.178Z,98690.60
2022-08-26T00:42:38.652Z,98691.20
2022-08-26T00:45:43.593Z,98694.00
2022-08-26T00:48:41.096Z,98698.00
2022-08-26T00:51:39.575Z,98696.80
2022-08-26T00:54:37.056Z,98689.40
2022-08-26T00:57:34.516Z,98690.40
2022-08-26T01:00:32.000Z,98692.00
2022-08-26T01:03:29.512Z,98689.60
2022-08-26T01:06:27.460Z,98687.80
2022-08-26T01:09:24.929Z,98694.20
2022-08-26T01:12:22.439Z,98693.00
2022-08-26T01:15:19.923Z,98688.80
2022-08-26T01:18:17.412Z,98683.80
2022-08-26T01:21:14.912Z,98681.60
2022-08-26T01:24:13.924Z,98680.80
2022-08-26T01:27:11.634Z,98678.60
2022-08-26T01:30:09.457Z,98681.00
2022-08-26T01:33:07.050Z,98679.60
2022-08-26T01:36:04.654Z,98679.00
2022-08-26T01:39:02.135Z,98679.80
2022-08-26T01:42:03.546Z,98680.40
2022-08-26T01:45:01.005Z,98676.80
2022-08-26T01:47:59.919Z,98677.60
2022-08-26T01:50:57.662Z,98678.60
2022-08-26T01:53:55.261Z,98678.60
2022-08-26T01:56:52.740Z,98674.00
2022-08-26T01:59:50.321Z,98675.80
2022-08-26T02:02:47.932Z,98675.00
2022-08-26T02:05:45.683Z,98675.80
2022-08-26T02:08:46.433Z,98679.00
2022-08-26T02:11:45.246Z,98682.20
2022-08-26T02:14:43.639Z,98681.00
2022-08-26T02:17:41.941Z,98678.40
2022-08-26T02:20:39.418Z,98674.80
2022-08-26T02:23:36.962Z,98671.20
2022-08-26T02:26:35.757Z,98670.20
2022-08-26T02:29:34.680Z,98670.40
2022-08-26T02:32:32.145Z,98668.40
2022-08-26T02:35:29.602Z,98666.00
2022-08-26T02:38:27.894Z,98669.00
2022-08-26T02:41:25.377Z,98664.80
2022-08-26T02:44:22.861Z,98661.80
2022-08-26T02:47:20.359Z,98658.40
2022-08-26T02:50:22.729Z,98657.20
2022-08-26T02:53:25.044Z,98656.00
2022-08-26T02:56:23.050Z,98654.60
2022-08-26T02:59:20.538Z,98653.80
2022-08-26T03:02:22.208Z,98657.60
2022-08-26T03:05:22.232Z,98655.60
2022-08-26T03:08:22.367Z,98650.80
2022-08-26T03:11:20.286Z,98650.00
2022-08-26T03:14:19.288Z,98649.60
2022-08-26T03:17:17.025Z,98643.00
2022-08-26T03:20:15.566Z,98649.00
2022-08-26T03:23:14.942Z,98652.00
2022-08-26T03:26:12.402Z,98646.00
2022-08-26T03:29:28.055Z,98646.60
2022-08-26T03:32:30.455Z,98641.80
2022-08-26T03:35:27.935Z,98647.80
2022-08-26T03:38:26.386Z,98650.20
2022-08-26T03:41:24.187Z,98652.40
2022-08-26T03:44:21.670Z,98650.60
2022-08-26T03:47:19.161Z,98646.60
2022-08-26T03:50:16.639Z,98648.20
2022-08-26T03:53:20.651Z,98640.00
2022-08-26T03:56:18.203Z,98650.20
2022-08-26T03:59:15.678Z,98647.60
2022-08-26T04:02:13.129Z,98652.20
2022-08-26T04:05:11.300Z,98653.40
2022-08-26T04:08:10.048Z,98649.40
2022-08-26T04:11:08.619Z,98643.80
2022-08-26T04:14:07.807Z,98641.40
2022-08-26T04:17:05.371Z,98638.80
2022-08-26T04:20:03.529Z,98636.20
2022-08-26T04:23:01.026Z,98639.20
2022-08-26T04:25:58.496Z,98639.60
2022-08-26T04:28:55.957Z,98634.80
2022-08-26T04:31:55.497Z,98638.60
2022-08-26T04:34:53.379Z,98639.20
2022-08-26T04:37:50.928Z,98638.60
2022-08-26T04:40:48.419Z,98637.60
2022-08-26T04:43:46.619Z,98644.40
2022-08-26T04:46:44.188Z,98645.60
2022-08-26T04:49:42.248Z,98641.40
2022-08-26T04:52:39.721Z,98642.80
2022-08-26T04:55:38.770Z,98638.60
2022-08-26T04:58:37.375Z,98643.40
2022-08-26T05:01:34.915Z,98640.60
2022-08-26T05:04:37.195Z,98640.20
2022-08-26T05:07:35.405Z,98640.20
2022-08-26T05:10:34.708Z,98646.20
2022-08-26T05:13:32.200Z,98647.60
2022-08-26T05:16:31.873Z,98650.60
2022-08-26T05:19:29.612Z,98654.60
2022-08-26T05:22:27.106Z,98653.00
2022-08-26T05:25:24.593Z,98652.00
2022-08-26T05:28:24.889Z,98655.60
2022-08-26T05:31:22.602Z,98660.40
2022-08-26T05:34:20.906Z,98663.20
2022-08-26T05:37:19.415Z,98661.80
2022-08-26T05:40:18.535Z,98661.00
2022-08-26T05:43:17.039Z,98664.20
2022-08-26T05:46:17.738Z,98660.40
2022-08-26T05:49:15.926Z,98656.40
2022-08-26T05:52:13.470Z,98657.00
2022-08-26T05:55:10.946Z,98656.40
2022-08-26T05:58:08.713Z,98654.40
2022-08-26T06:01:06.402Z,98657.00
2022-08-26T06:04:03.877Z,98658.40
2022-08-26T06:07:01.380Z,98657.20
2022-08-26T06:10:28.240Z,98657.00
2022-08-26T06:13:17.270Z,98659.20
2022-08-26T06:16:14.864Z,98660.80
2022-08-26T06:19:12.444Z,98661.40
2022-08-26T06:22:24.108Z,98669.80
2022-08-26T06:25:42.151Z,98665.00
2022-08-26T06:28:40.864Z,98662.60
2022-08-26T06:31:41.091Z,98661.20
2022-08-26T06:34:38.601Z,98660.40
2022-08-26T06:37:36.248Z,98662.60
2022-08-26T06:40:34.051Z,98662.00
2022-08-26T06:43:32.688Z,98661.60
2022-08-26T06:46:30.806Z,98658.60
2022-08-26T06:49:28.296Z,98661.40
2022-08-26T06:52:25.783Z,98663.40
2022-08-26T06:55:23.245Z,98661.00
2022-08-26T06:58:24.681Z,98661.40
2022-08-26T07:01:22.182Z,98660.00
2022-08-26T07:04:22.469Z,98656.60
2022-08-26T07:07:21.613Z,98657.60
2022-08-26T07:10:19.650Z,98659.20
2022-08-26T07:13:18.350Z,98658.40
2022-08-26T07:16:28.291Z,98657.60
2022-08-26T07:19:30.430Z,98659.20
2022-08-26T07:22:29.165Z,98654.00
2022-08-26T07:25:28.030Z,98657.40
2022-08-26T07:28:26.101Z,98659.80
2022-08-26T07:31:23.586Z,98661.60
2022-08-26T07:34:22.392Z,98655.80
2022-08-26T07:37:19.870Z,98654.40
2022-08-26T07:40:17.727Z,98652.80
2022-08-26T07:43:16.293Z,98652.20
2022-08-26T07:46:18.679Z,98655.80
2022-08-26T07:49:25.281Z,98650.60
2022-08-26T07:52:26.648Z,98653.00
2022-08-26T07:55:24.644Z,98649.20
2022-08-26T07:58:22.517Z,98649.40
2022-08-26T08:01:20.035Z,98653.40
2022-08-26T08:04:17.783Z,98655.80
2022-08-26T08:07:15.798Z,98651.00
2022-08-26T08:10:13.629Z,98655.80
2022-08-26T08:13:11.138Z,98652.40
2022-08-26T08:16:12.652Z,98655.80
2022-08-26T08:19:10.296Z,98654.80
2022-08-26T08:22:17.546Z,98654.60
2022-08-26T08:25:17.144Z,98650.60
2022-08-26T08:28:14.809Z,98651.80
2022-08-26T08:31:12.645Z,98646.20
2022-08-26T08:34:11.163Z,98649.40
2022-08-26T08:37:10.801Z,98653.20
2022-08-26T08:40:09.086Z,98651.80
2022-08-26T08:43:06.764Z,98653.60
2022-08-26T08:46:04.467Z,98655.80
2022-08-26T08:49:04.286Z,98652.80
2022-08-26T08:52:01.747Z,98653.80
2022-08-26T08:54:59.312Z,98651.60
2022-08-26T08:58:02.029Z,98647.60
2022-08-26T09:00:59.905Z,98650.80
2022-08-26T09:03:57.378Z,98649.40
2022-08-26T09:06:54.912Z,98651.60
2022-08-26T09:09:52.525Z,98646.00
2022-08-26T09:12:50.133Z,98647.80
2022-08-26T09:15:47.710Z,98649.00
2022-08-26T09:18:46.670Z,98647.40
2022-08-26T09:21:44.687Z,98643.00
2022-08-26T09:24:49.160Z,98651.00
2022-08-26T09:27:46.838Z,98652.00
2022-08-26T09:30:48.173Z,98652.00
2022-08-26T09:33:46.247Z,98654.60
2022-08-26T09:36:43.872Z,98654.20
2022-08-26T09:39:41.354Z,98648.80
2022-08-26T09:42:38.825Z,98653.40
2022-08-26T09:45:38.916Z,98652.60
2022-08-26T09:48:36.595Z,98651.60
2022-08-26T09:51:34.380Z,98647.80
2022-08-26T09:54:32.438Z,98649.60
2022-08-26T09:57:30.960Z,98648.60
2022-08-26T10:00:29.153Z,98650.60
2022-08-26T10:03:27.178Z,98648.20
2022-08-26T10:06:24.997Z,98651.00
2022-08-26T10:09:22.578Z,98647.60
2022-08-26T10:12:21.769Z,98642.20
2022-08-26T10:15:19.583Z,98639.00
2022-08-26T10:18:19.934Z,98641.80
2022-08-26T10:21:17.866Z,98642.40
2022-08-26T10:24:15.638Z,98642.40
2022-08-26T10:27:13.730Z,98646.40
2022-08-26T10:30:11.552Z,98646.40
2022-08-26T10:33:09.184Z,98646.80
2022-08-26T10:36:12.255Z,98647.20
2022-08-26T10:39:12.929Z,98644.60
2022-08-26T10:42:11.692Z,98641.00
2022-08-26T10:45:11.818Z,98645.60
2022-08-26T10:48:12.388Z,98641.20
2022-08-26T10:51:10.460Z,98640.60
2022-08-26T10:54:07.951Z,98641.60
2022-08-26T10:57:06.543Z,98637.40
2022-08-26T11:00:28.370Z,98634.20
2022-08-26T11:03:26.100Z,98629.20
2022-08-26T11:06:23.582Z,98622.20
2022-08-26T11:09:21.066Z,98621.80
2022-08-26T11:12:26.375Z,98617.80
2022-08-26T11:15:24.478Z,98618.20
2022-08-26T11:18:22.633Z,98610.00
2022-08-26T11:21:22.666Z,98608.00
2022-08-26T11:24:27.220Z,98605.20
2022-08-26T11:27:26.028Z,98602.60
2022-08-26T11:30:24.118Z,98604.80
2022-08-26T11:33:21.714Z,98596.40
2022-08-26T11:36:19.167Z,98596.60
2022-08-26T11:39:19.023Z,98592.80
2022-08-26T11:42:16.835Z,98590.00
2022-08-26T11:45:17.815Z,98580.00
2022-08-26T11:48:15.974Z,98578.60
2022-08-26T11:51:13.534Z,98577.20
2022-08-26T11:54:11.048Z,98571.60
2022-08-26T11:57:09.606Z,98565.20
2022-08-26T12:00:12.541Z,98563.20
2022-08-26T12:03:12.053Z,98549.00
2022-08-26T12:06:10.363Z,98549.40
2022-08-26T12:09:11.757Z,98545.20
2022-08-26T12:12:09.270Z,98543.40
2022-08-26T12:15:10.775Z,98540.80
2022-08-26T12:18:08.356Z,98538.60
2022-08-26T12:21:06.462Z,98538.80
2022-08-26T12:24:04.167Z,98536.00
2022-08-26T12:27:01.692Z,98535.60
2022-08-26T12:29:59.185Z,98523.80
2022-08-26T12:32:58.744Z,98523.40
2022-08-26T12:35:57.024Z,98523.20
2022-08-26T12:38:57.987Z,98520.00
2022-08-26T12:41:56.001Z,98512.40
2022-08-26T12:44:54.607Z,98507.20
2022-08-26T12:47:52.328Z,98509.40
2022-08-26T12:50:49.871Z,98506.60
2022-08-26T12:53:47.396Z,98507.20
2022-08-26T12:56:44.915Z,98506.60
2022-08-26T12:59:42.430Z,98499.80
2022-08-26T13:02:40.285Z,98501.40
2022-08-26T13:05:38.133Z,98495.40
2022-08-26T13:08:35.658Z,98492.20
2022-08-26T13:11:33.210Z,98491.20
2022-08-26T13:14:31.331Z,98488.00
2022-08-26T13:17:28.856Z,98487.40
2022-08-26T13:20:26.868Z,98480.40
2022-08-26T13:23:24.479Z,98475.40
2022-08-26T13:26:22.002Z,98471.80
2022-08-26T13:29:19.532Z,98465.20
2022-08-26T13:32:18.492Z,98467.60
2022-08-26T13:35:16.046Z,98458.00
2022-08-26T13:38:22.334Z,98456.80
2022-08-26T13:41:32.223Z,98451.60
2022-08-26T13:44:29.744Z,98454.40
2022-08-26T13:47:28.184Z,98452.00
2022-08-26T13:50:25.706Z,98450.60
2022-08-26T13:53:23.425Z,98451.40
2022-08-26T13:56:21.671Z,98441.40
2022-08-26T13:59:19.632Z,98441.00
2022-08-26T14:02:17.163Z,98437.40
2022-08-26T14:05:14.687Z,98440.60
2022-08-26T14:08:12.205Z,98437.00
2022-08-26T14:11:10.024Z,98434.20
2022-08-26T14:14:07.858Z,98434.60
2022-08-26T14:17:05.383Z,98436.00
2022-08-26T14:20:02.899Z,98432.40
2022-08-26T14:23:15.682Z,98433.20
2022-08-26T14:26:28.104Z,98421.60
2022-08-26T14:29:27.078Z,98421.60
2022-08-26T14:32:24.583Z,98416.80
2022-08-26T14:35:22.091Z,98415.20
2022-08-26T14:38:19.603Z,98411.80
2022-08-26T14:41:17.688Z,98414.60
2022-08-26T14:44:15.208Z,98411.80
2022-08-26T14:47:12.736Z,98418.40
2022-08-26T14:50:10.327Z,98418.40
2022-08-26T14:53:28.361Z,98414.80
2022-08-26T14:56:25.887Z,98422.60
2022-08-26T14:59:23.418Z,98424.60
2022-08-26T15:02:32.688Z,98431.00
2022-08-26T15:05:31.505Z,98427.00
2022-08-26T15:08:29.030Z,98425.40
2022-08-26T15:11:27.164Z,98420.80
2022-08-26T15:14:25.439Z,98419.60
2022-08-26T15:17:23.578Z,98422.20
2022-08-26T15:20:21.111Z,98416.80
2022-08-26T15:23:18.658Z,98418.40
2022-08-26T15:26:18.904Z,98412.40
2022-08-26T15:29:16.406Z,98409.20
2022-08-26T15:32:13.913Z,98407.80
2022-08-26T15:35:11.430Z,98407.60
2022-08-26T15:38:09.062Z,98408.60
2022-08-26T15:41:06.897Z,98406.20
2022-08-26T15:44:04.435Z,98405.20
2022-08-26T15:47:01.990Z,98403.20
2022-08-26T15:49:59.561Z,98404.40
2022-08-26T15:52:57.080Z,98396.60
2022-08-26T15:55:54.622Z,98395.60
2022-08-26T15:58:54.071Z,98395.40
2022-08-26T16:01:53.782Z,98394.40
2022-08-26T16:04:51.671Z,98392.20
2022-08-26T16:07:52.052Z,98392.00
2022-08-26T16:10:50.793Z,98393.00
2022-08-26T16:13:48.545Z,98389.40
2022-08-26T16:16:46.051Z,98387.00
2022-08-26T16:19:43.592Z,98388.20
2022-08-26T16:22:41.096Z,98389.00
2022-08-26T16:25:38.635Z,98383.40
2022-08-26T16:28:36.140Z,98385.40
2022-08-26T16:31:36.031Z,98385.40
2022-08-26T16:34:33.626Z,98388.80
2022-08-26T16:37:31.156Z,98391.40
2022-08-26T16:40:28.768Z,98386.60
2022-08-26T16:43:26.351Z,98388.80
2022-08-26T16:46:25.893Z,98388.00
2022-08-26T16:49:23.534Z,98389.60
2022-08-26T16:52:21.046Z,98387.40
2022-08-26T16:55:22.363Z,98385.00
2022-08-26T16:58:22.008Z,98378.80
2022-08-26T17:01:19.999Z,98376.20
2022-08-26T17:04:19.157Z,98382.20
2022-08-26T17:07:16.670Z,98381.80
2022-08-26T17:10:14.208Z,98378.20
2022-08-26T17:13:11.739Z,98375.80
2022-08-26T17:16:13.694Z,98377.40
2022-08-26T17:19:11.231Z,98378.60
2022-08-26T17:22:09.083Z,98375.20
2022-08-26T17:25:06.583Z,98374.20
2022-08-26T17:28:04.058Z,98368.60
2022-08-26T17:31:09.082Z,98371.20
2022-08-26T17:34:06.613Z,98370.60
2022-08-26T17:37:04.092Z,98370.20
2022-08-26T17:40:02.546Z,98371.20
2022-08-26T17:43:00.136Z,98375.20
2022-08-26T17:45:57.967Z,98377.20
2022-08-26T17:48:57.566Z,98386.20
2022-08-26T17:51:55.063Z,98389.00
2022-08-26T17:54:52.538Z,98386.40
2022-08-26T17:57:53.214Z,98386.00
2022-08-26T18:00:51.209Z,98387.80
2022-08-26T18:03:48.763Z,98386.20
2022-08-26T18:06:46.307Z,98386.20
2022-08-26T18:09:43.777Z,98387.60
2022-08-26T18:12:41.826Z,98385.80
2022-08-26T18:15:39.455Z,98389.80
2022-08-26T18:18:36.977Z,98393.40
2022-08-26T18:21:34.465Z,98394.60
2022-08-26T18:24:32.730Z,98400.80
2022-08-26T18:27:30.213Z,98403.40
2022-08-26T18:30:27.681Z,98408.20
2022-08-26T18:33:25.187Z,98409.40
2022-08-26T18:36:22.954Z,98407.60
2022-08-26T18:39:23.528Z,98409.00
2022-08-26T18:42:21.288Z,98410.00
2022-08-26T18:45:18.886Z,98409.60
2022-08-26T18:48:16.849Z,98414.00
2022-08-26T18:51:14.371Z,98416.20
2022-08-26T18:54:11.955Z,98424.40
2022-08-26T18:57:09.725Z,98427.00
2022-08-26T19:00:07.385Z,98432.00
2022-08-26T19:03:05.138Z,98431.80
2022-08-26T19:06:13.109Z,98430.40
2022-08-26T19:09:10.700Z,98437.20
2022-08-26T19:12:09.640Z,98438.00
2022-08-26T19:15:07.407Z,98435.00
2022-08-26T19:18:05.331Z,98434.80
2022-08-26T19:21:03.183Z,98435.80
2022-08-26T19:24:01.094Z,98441.20
2022-08-26T19:26:58.990Z,98447.20
2022-08-26T19:29:56.843Z,98449.20
2022-08-26T19:32:54.726Z,98449.00
2022-08-26T19:35:52.538Z,98447.40
2022-08-26T19:38:50.296Z,98450.40
2022-08-26T19:41:48.074Z,98451.20
2022-08-26T19:45:03.556Z,98444.60
2022-08-26T19:48:01.472Z,98449.40
2022-08-26T19:50:59.783Z,98449.60
2022-08-26T19:53:57.694Z,98451.20
2022-08-26T19:56:55.527Z,98451.60
2022-08-26T19:59:53.402Z,98452.80
2022-08-26T20:02:51.376Z,98455.20
2022-08-26T20:05:49.703Z,98453.20
2022-08-26T20:08:47.235Z,98455.40
2022-08-26T20:11:45.043Z,98459.00
2022-08-26T20:14:43.220Z,98452.40
2022-08-26T20:17:40.953Z,98453.40
2022-08-26T20:20:56.121Z,98460.80
2022-08-26T20:23:56.720Z,98461.40
2022-08-26T20:26:54.573Z,98466.00
2022-08-26T20:29:52.307Z,98466.20
2022-08-26T20:32:49.899Z,98466.20
2022-08-26T20:35:47.427Z,98465.00
2022-08-26T20:38:46.402Z,98464.00
2022-08-26T20:41:45.648Z,98459.20
2022-08-26T20:44:43.203Z,98456.00
2022-08-26T20:47:52.581Z,98456.20
2022-08-26T20:50:50.117Z,98447.40
2022-08-26T20:53:47.637Z,98449.40
2022-08-26T20:56:45.164Z,98444.00
2022-08-26T20:59:43.204Z,98441.60
2022-08-26T21:02:40.716Z,98442.60
2022-08-26T21:05:38.237Z,98443.80
2022-08-26T21:08:37.808Z,98447.60
2022-08-26T21:11:37.298Z,98442.60
2022-08-26T21:14:34.807Z,98445.60
2022-08-26T21:17:32.588Z,98449.00
2022-08-26T21:20:30.107Z,98451.00
2022-08-26T21:23:29.301Z,98449.40
2022-08-26T21:26:27.031Z,98452.80
2022-08-26T21:29:24.572Z,98452.60
2022-08-26T21:32:22.091Z,98455.80
2022-08-26T21:35:19.620Z,98456.40
2022-08-26T21:38:17.133Z,98458.80
2022-08-26T21:41:14.688Z,98459.80
2022-08-26T21:44:13.742Z,98456.80
2022-08-26T21:47:11.255Z,98464.00
2022-08-26T21:50:11.044Z,98465.80
2022-08-26T21:53:08.555Z,98463.40
2022-08-26T21:56:06.489Z,98462.00
2022-08-26T21:59:04.008Z,98463.00
2022-08-26T22:02:01.589Z,98460.40
2022-08-26T22:04:59.151Z,98456.40
2022-08-26T22:07:56.705Z,98458.40
2022-08-26T22:10:55.200Z,98458.60
2022-08-26T22:13:52.805Z,98455.80
2022-08-26T22:16:50.947Z,98457.60
2022-08-26T22:19:48.683Z,98457.40
2022-08-26T22:22:46.865Z,98454.40
2022-08-26T22:25:44.391Z,98454.40
2022-08-26T22:28:41.906Z,98458.00
2022-08-26T22:31:40.412Z,98456.80
2022-08-26T22:34:38.019Z,98460.60
2022-08-26T22:37:35.535Z,98461.40
2022-08-26T22:40:34.059Z,98462.20
2022-08-26T22:43:31.689Z,98456.60
2022-08-26T22:46:29.210Z,98461.20
2022-08-26T22:49:26.764Z,98456.60
2022-08-26T22:52:24.274Z,98450.60
2022-08-26T22:55:21.792Z,98445.60
2022-08-26T22:58:19.340Z,98447.20
2022-08-26T23:01:17.318Z,98441.00
2022-08-26T23:04:14.881Z,98442.60
2022-08-26T23:07:12.411Z,98444.80
2022-08-26T23:10:09.917Z,98442.00
2022-08-26T23:13:08.301Z,98439.80
2022-08-26T23:16:05.851Z,98444.60
2022-08-26T23:19:04.343Z,98445.60
2022-08-26T23:22:01.878Z,98443.60
2022-08-26T23:25:00.386Z,98443.60
2022-08-26T23:27:57.926Z,98446.20
2022-08-26T23:30:55.434Z,98446.40
2022-08-26T23:34:10.829Z,98443.60
2022-08-26T23:37:08.942Z,98448.60
2022-08-26T23:40:06.542Z,98440.80
2022-08-26T23:43:04.526Z,98442.80
2022-08-26T23:46:02.109Z,98445.20
2022-08-26T23:48:59.657Z,98446.00
2022-08-26T23:52:14.719Z,98449.60
2022-08-26T23:55:12.246Z,98448.00
2022-08-26T23:58:09.949Z,98442.60
